sensor_id;sensor_type;location;lat;lon;timestamp;pressure;altitude;pressure_sealevel;temperature;humidity
12879;BME280;20617;49.476;10.986;2022-10-18T00:00:25;99322.44;;;15.67;100.00
12879;BME280;20617;49.476;10.986;2022-10-18T00:02:30;99321.56;;;15.68;100.00
12879;BME280;20617;49.476;10.986;2022-10-18T00:04:35;99324.19;;;15.68;100.00
12879;BME280;20617;49.476;10.986;2022-10-18T00:06:40;99323.38;;;15.66;100.00
12879;BME280;20617;49.476;10.986;2022-10-18T00:08:47;99319.09;;;15.63;100.00
12879;BME280;20617;49.476;10.986;2022-10-18T00:10:52;99323.56;;;15.61;100.00
12879;BME280;20617;49.476;10.986;2022-10-18T00:12:57;99327.25;;;15.57;100.00
12879;BME280;20617;49.476;10.986;2022-10-18T00:15:03;99328.19;;;15.56;100.00
12879;BME280;20617;49.476;10.986;2022-10-18T00:17:09;99340.38;;;15.57;100.00
12879;BME280;20617;49.476;10.986;2022-10-18T00:19:14;99331.72;;;15.55;100.00
12879;BME280;20617;49.476;10.986;2022-10-18T00:21:19;99332.94;;;15.48;100.00
12879;BME280;20617;49.476;10.986;2022-10-18T00:23:29;99336.41;;;15.49;100.00
12879;BME280;20617;49.476;10.986;2022-10-18T00:25:36;99336.41;;;15.49;100.00
12879;BME280;20617;49.476;10.986;2022-10-18T00:27:41;99326.91;;;15.46;100.00
12879;BME280;20617;49.476;10.986;2022-10-18T00:29:48;99340.94;;;15.45;100.00
12879;BME280;20617;49.476;10.986;2022-10-18T00:31:55;99335.69;;;15.45;100.00
12879;BME280;20617;49.476;10.986;2022-10-18T00:34:02;99328.59;;;15.47;100.00
12879;BME280;20617;49.476;10.986;2022-10-18T00:36:08;99330.38;;;15.47;100.00
12879;BME280;20617;49.476;10.986;2022-10-18T00:38:13;99337.38;;;15.46;100.00
12879;BME280;20617;49.476;10.986;2022-10-18T00:40:18;99336.53;;;15.46;100.00
12879;BME280;20617;49.476;10.986;2022-10-18T00:42:30;99333.00;;;15.47;100.00
12879;BME280;20617;49.476;10.986;2022-10-18T00:47:17;99329.78;;;15.40;100.00
12879;BME280;20617;49.476;10.986;2022-10-18T00:49:27;99322.91;;;15.37;100.00
12879;BME280;20617;49.476;10.986;2022-10-18T00:51:37;99325.66;;;15.34;100.00
12879;BME280;20617;49.476;10.986;2022-10-18T00:53:43;99327.50;;;15.32;100.00
12879;BME280;20617;49.476;10.986;2022-10-18T00:55:48;99324.81;;;15.34;100.00
12879;BME280;20617;49.476;10.986;2022-10-18T00:57:56;99334.34;;;15.36;100.00
12879;BME280;20617;49.476;10.986;2022-10-18T01:00:02;99325.63;;;15.36;100.00
12879;BME280;20617;49.476;10.986;2022-10-18T01:02:10;99323.97;;;15.33;100.00
12879;BME280;20617;49.476;10.986;2022-10-18T01:04:19;99324.88;;;15.32;100.00
12879;BME280;20617;49.476;10.986;2022-10-18T01:06:27;99328.34;;;15.33;100.00
12879;BME280;20617;49.476;10.986;2022-10-18T01:08:54;99329.13;;;15.35;100.00
12879;BME280;20617;49.476;10.986;2022-10-18T01:11:08;99319.72;;;15.31;100.00
12879;BME280;20617;49.476;10.986;2022-10-18T01:13:27;99323.25;;;15.30;100.00
12879;BME280;20617;49.476;10.986;2022-10-18T01:15:41;99314.59;;;15.28;100.00
12879;BME280;20617;49.476;10.986;2022-10-18T01:17:58;99308.66;;;15.24;100.00
12879;BME280;20617;49.476;10.986;2022-10-18T01:20:29;99304.53;;;15.19;100.00
12879;BME280;20617;49.476;10.986;2022-10-18T01:22:42;99315.22;;;15.14;100.00
12879;BME280;20617;49.476;10.986;2022-10-18T01:25:05;99308.31;;;15.11;100.00
12879;BME280;20617;49.476;10.986;2022-10-18T01:27:34;99307.53;;;15.09;100.00
12879;BME280;20617;49.476;10.986;2022-10-18T01:29:53;99303.22;;;15.08;100.00
12879;BME280;20617;49.476;10.986;2022-10-18T01:32:07;99298.75;;;15.10;100.00
12879;BME280;20617;49.476;10.986;2022-10-18T01:34:16;99306.50;;;15.13;100.00
12879;BME280;20617;49.476;10.986;2022-10-18T01:36:24;99298.50;;;15.16;100.00
12879;BME280;20617;49.476;10.986;2022-10-18T01:38:33;99302.81;;;15.17;100.00
12879;BME280;20617;49.476;10.986;2022-10-18T01:40:41;99291.41;;;15.19;100.00
12879;BME280;20617;49.476;10.986;2022-10-18T01:42:48;99297.50;;;15.19;100.00
12879;BME280;20617;49.476;10.986;2022-10-18T01:44:53;99293.94;;;15.20;100.00
12879;BME280;20617;49.476;10.986;2022-10-18T01:47:02;99287.06;;;15.17;100.00
12879;BME280;20617;49.476;10.986;2022-10-18T01:49:09;99288.94;;;15.15;100.00
12879;BME280;20617;49.476;10.986;2022-10-18T01:51:13;99288.97;;;15.14;100.00
12879;BME280;20617;49.476;10.986;2022-10-18T01:53:29;99293.38;;;15.13;100.00
12879;BME280;20617;49.476;10.986;2022-10-18T01:55:37;99291.66;;;15.12;100.00
12879;BME280;20617;49.476;10.986;2022-10-18T01:57:51;99289.97;;;15.11;100.00
12879;BME280;20617;49.476;10.986;2022-10-18T02:00:03;99291.78;;;15.09;100.00
12879;BME280;20617;49.476;10.986;2022-10-18T02:02:22;99280.53;;;15.07;100.00
12879;BME280;20617;49.476;10.986;2022-10-18T02:04:35;99284.19;;;15.03;100.00
12879;BME280;20617;49.476;10.986;2022-10-18T02:06:44;99288.69;;;15.01;100.00
12879;BME280;20617;49.476;10.986;2022-10-18T02:08:52;99286.94;;;15.00;100.00
12879;BME280;20617;49.476;10.986;2022-10-18T02:11:01;99286.19;;;14.98;100.00
12879;BME280;20617;49.476;10.986;2022-10-18T02:13:07;99293.25;;;14.96;100.00
12879;BME280;20617;49.476;10.986;2022-10-18T02:15:17;99290.63;;;14.96;100.00
12879;BME280;20617;49.476;10.986;2022-10-18T02:17:28;99296.03;;;14.93;100.00
12879;BME280;20617;49.476;10.986;2022-10-18T02:19:37;99292.69;;;14.89;100.00
12879;BME280;20617;49.476;10.986;2022-10-18T02:21:45;99300.59;;;14.88;100.00
12879;BME280;20617;49.476;10.986;2022-10-18T02:23:52;99297.97;;;14.88;100.00
12879;BME280;20617;49.476;10.986;2022-10-18T02:25:58;99297.00;;;14.90;100.00
12879;BME280;20617;49.476;10.986;2022-10-18T02:28:03;99294.56;;;14.86;100.00
12879;BME280;20617;49.476;10.986;2022-10-18T02:30:09;99298.25;;;14.82;100.00
12879;BME280;20617;49.476;10.986;2022-10-18T02:32:19;99297.53;;;14.78;100.00
12879;BME280;20617;49.476;10.986;2022-10-18T02:34:29;99301.06;;;14.77;100.00
12879;BME280;20617;49.476;10.986;2022-10-18T02:36:42;99298.56;;;14.74;100.00
12879;BME280;20617;49.476;10.986;2022-10-18T02:38:52;99303.09;;;14.70;100.00
12879;BME280;20617;49.476;10.986;2022-10-18T02:40:58;99307.63;;;14.67;100.00
12879;BME280;20617;49.476;10.986;2022-10-18T02:43:04;99311.34;;;14.61;100.00
12879;BME280;20617;49.476;10.986;2022-10-18T02:45:09;99314.97;;;14.57;100.00
12879;BME280;20617;49.476;10.986;2022-10-18T02:47:15;99311.66;;;14.54;100.00
12879;BME280;20617;49.476;10.986;2022-10-18T02:49:19;99303.78;;;14.54;100.00
12879;BME280;20617;49.476;10.986;2022-10-18T02:51:27;99308.28;;;14.50;100.00
12879;BME280;20617;49.476;10.986;2022-10-18T02:53:32;99311.03;;;14.47;100.00
12879;BME280;20617;49.476;10.986;2022-10-18T02:55:37;99305.91;;;14.44;100.00
12879;BME280;20617;49.476;10.986;2022-10-18T02:57:41;99311.06;;;14.45;100.00
12879;BME280;20617;49.476;10.986;2022-10-18T02:59:46;99306.72;;;14.46;100.00
12879;BME280;20617;49.476;10.986;2022-10-18T03:01:51;99311.06;;;14.45;100.00
12879;BME280;20617;49.476;10.986;2022-10-18T03:03:56;99316.19;;;14.48;100.00
12879;BME280;20617;49.476;10.986;2022-10-18T03:06:01;99311.81;;;14.49;100.00
12879;BME280;20617;49.476;10.986;2022-10-18T03:08:08;99309.09;;;14.52;100.00
12879;BME280;20617;49.476;10.986;2022-10-18T03:10:13;99302.00;;;14.54;100.00
12879;BME280;20617;49.476;10.986;2022-10-18T03:12:18;99301.03;;;14.57;100.00
12879;BME280;20617;49.476;10.986;2022-10-18T03:14:23;99303.03;;;14.52;100.00
12879;BME280;20617;49.476;10.986;2022-10-18T03:16:28;99297.78;;;14.52;100.00
12879;BME280;20617;49.476;10.986;2022-10-18T03:18:32;99301.34;;;14.49;100.00
12879;BME280;20617;49.476;10.986;2022-10-18T03:20:37;99297.06;;;14.46;100.00
12879;BME280;20617;49.476;10.986;2022-10-18T03:22:42;99296.28;;;14.44;100.00
12879;BME280;20617;49.476;10.986;2022-10-18T03:24:49;99291.03;;;14.44;100.00
12879;BME280;20617;49.476;10.986;2022-10-18T03:26:55;99293.66;;;14.44;100.00
12879;BME280;20617;49.476;10.986;2022-10-18T03:29:00;99284.94;;;14.44;100.00
12879;BME280;20617;49.476;10.986;2022-10-18T03:31:05;99294.59;;;14.43;100.00
12879;BME280;20617;49.476;10.986;2022-10-18T03:33:09;99293.66;;;14.44;100.00
12879;BME280;20617;49.476;10.986;2022-10-18T03:35:14;99286.66;;;14.45;100.00
12879;BME280;20617;49.476;10.986;2022-10-18T03:37:19;99284.88;;;14.45;100.00
12879;BME280;20617;49.476;10.986;2022-10-18T03:39:25;99286.59;;;14.46;100.00
12879;BME280;20617;49.476;10.986;2022-10-18T03:41:33;99284.81;;;14.47;100.00
12879;BME280;20617;49.476;10.986;2022-10-18T03:43:37;99288.28;;;14.47;100.00
12879;BME280;20617;49.476;10.986;2022-10-18T03:45:42;99285.63;;;14.49;100.00
12879;BME280;20617;49.476;10.986;2022-10-18T03:47:47;99282.91;;;14.50;100.00
12879;BME280;20617;49.476;10.986;2022-10-18T03:49:52;99277.69;;;14.50;100.00
12879;BME280;20617;49.476;10.986;2022-10-18T03:51:58;99272.28;;;14.55;100.00
12879;BME280;20617;49.476;10.986;2022-10-18T03:54:03;99274.78;;;14.58;100.00
12879;BME280;20617;49.476;10.986;2022-10-18T03:56:07;99271.09;;;14.62;100.00
12879;BME280;20617;49.476;10.986;2022-10-18T03:58:15;99271.78;;;14.67;100.00
12879;BME280;20617;49.476;10.986;2022-10-18T04:00:20;99264.63;;;14.71;100.00
12879;BME280;20617;49.476;10.986;2022-10-18T04:02:26;99267.09;;;14.74;100.00
12879;BME280;20617;49.476;10.986;2022-10-18T04:04:31;99263.63;;;14.74;100.00
12879;BME280;20617;49.476;10.986;2022-10-18T04:06:36;99264.56;;;14.73;100.00
12879;BME280;20617;49.476;10.986;2022-10-18T04:08:40;99266.25;;;14.74;100.00
12879;BME280;20617;49.476;10.986;2022-10-18T04:10:45;99260.03;;;14.76;100.00
12879;BME280;20617;49.476;10.986;2022-10-18T04:12:50;99264.22;;;14.80;100.00
12879;BME280;20617;49.476;10.986;2022-10-18T04:14:58;99261.47;;;14.83;100.00
12879;BME280;20617;49.476;10.986;2022-10-18T04:17:02;99264.03;;;14.85;100.00
12879;BME280;20617;49.476;10.986;2022-10-18T04:19:07;99261.28;;;14.88;100.00
12879;BME280;20617;49.476;10.986;2022-10-18T04:21:12;99263.75;;;14.91;100.00
12879;BME280;20617;49.476;10.986;2022-10-18T04:23:17;99257.53;;;14.93;100.00
12879;BME280;20617;49.476;10.986;2022-10-18T04:25:22;99259.31;;;14.93;100.00
12879;BME280;20617;49.476;10.986;2022-10-18T04:27:27;99255.84;;;14.92;100.00
12879;BME280;20617;49.476;10.986;2022-10-18T04:29:33;99248.81;;;14.93;100.00
12879;BME280;20617;49.476;10.986;2022-10-18T04:31:40;99255.97;;;14.89;100.00
12879;BME280;20617;49.476;10.986;2022-10-18T04:33:45;99255.09;;;14.89;100.00
12879;BME280;20617;49.476;10.986;2022-10-18T04:35:51;99262.84;;;14.92;100.00
12879;BME280;20617;49.476;10.986;2022-10-18T04:37:59;99255.84;;;14.92;100.00
12879;BME280;20617;49.476;10.986;2022-10-18T04:40:05;99252.22;;;14.95;100.00
12879;BME280;20617;49.476;10.986;2022-10-18T04:42:10;99257.44;;;14.95;100.00
12879;BME280;20617;49.476;10.986;2022-10-18T04:44:15;99259.22;;;14.94;100.00
12879;BME280;20617;49.476;10.986;2022-10-18T04:46:20;99253.94;;;14.96;100.00
12879;BME280;20617;49.476;10.986;2022-10-18T04:48:28;99248.69;;;14.96;100.00
12879;BME280;20617;49.476;10.986;2022-10-18T04:50:33;99249.41;;;15.00;100.00
12879;BME280;20617;49.476;10.986;2022-10-18T04:52:48;99244.16;;;15.00;100.00
12879;BME280;20617;49.476;10.986;2022-10-18T04:54:54;99249.25;;;15.03;100.00
12879;BME280;20617;49.476;10.986;2022-10-18T04:56:59;99250.38;;;14.97;100.00
12879;BME280;20617;49.476;10.986;2022-10-18T04:59:04;99244.28;;;14.97;100.00
12879;BME280;20617;49.476;10.986;2022-10-18T05:01:08;99246.13;;;14.94;100.00
12879;BME280;20617;49.476;10.986;2022-10-18T05:03:14;99251.22;;;14.98;100.00
12879;BME280;20617;49.476;10.986;2022-10-18T05:05:21;99242.78;;;14.91;100.00
12879;BME280;20617;49.476;10.986;2022-10-18T05:07:46;99234.13;;;14.89;100.00
12879;BME280;20617;49.476;10.986;2022-10-18T05:09:50;99235.72;;;14.93;100.00
12879;BME280;20617;49.476;10.986;2022-10-18T05:11:55;99242.59;;;14.96;100.00
12879;BME280;20617;49.476;10.986;2022-10-18T05:14:02;99242.66;;;14.94;100.00
12879;BME280;20617;49.476;10.986;2022-10-18T05:16:06;99244.44;;;14.93;100.00
12879;BME280;20617;49.476;10.986;2022-10-18T05:18:11;99237.41;;;14.94;100.00
12879;BME280;20617;49.476;10.986;2022-10-18T05:20:16;99231.22;;;14.95;100.00
12879;BME280;20617;49.476;10.986;2022-10-18T05:22:27;99233.75;;;14.98;100.00
12879;BME280;20617;49.476;10.986;2022-10-18T05:24:32;99223.31;;;14.97;100.00
12879;BME280;20617;49.476;10.986;2022-10-18T05:26:37;99225.09;;;14.96;100.00
12879;BME280;20617;49.476;10.986;2022-10-18T05:28:42;99223.38;;;14.95;100.00
12879;BME280;20617;49.476;10.986;2022-10-18T05:30:46;99224.28;;;14.94;100.00
12879;BME280;20617;49.476;10.986;2022-10-18T05:32:51;99227.06;;;14.91;100.00
12879;BME280;20617;49.476;10.986;2022-10-18T05:34:56;99225.41;;;14.88;100.00
12879;BME280;20617;49.476;10.986;2022-10-18T05:37:01;99232.25;;;14.92;100.00
12879;BME280;20617;49.476;10.986;2022-10-18T05:39:09;99232.16;;;14.94;100.00
12879;BME280;20617;49.476;10.986;2022-10-18T05:41:13;99237.22;;;14.99;100.00
12879;BME280;20617;49.476;10.986;2022-10-18T05:43:21;99231.03;;;15.00;100.00
12879;BME280;20617;49.476;10.986;2022-10-18T05:45:26;99233.53;;;15.03;100.00
12879;BME280;20617;49.476;10.986;2022-10-18T05:47:31;99240.56;;;15.02;100.00
12879;BME280;20617;49.476;10.986;2022-10-18T05:49:36;99236.94;;;15.05;100.00
12879;BME280;20617;49.476;10.986;2022-10-18T05:51:41;99230.72;;;15.07;100.00
12879;BME280;20617;49.476;10.986;2022-10-18T05:53:45;99232.59;;;15.04;100.00
12879;BME280;20617;49.476;10.986;2022-10-18T05:55:53;99236.84;;;15.06;100.00
12879;BME280;20617;49.476;10.986;2022-10-18T05:57:58;99234.22;;;15.06;100.00
12879;BME280;20617;49.476;10.986;2022-10-18T06:00:04;99233.34;;;15.07;100.00
12879;BME280;20617;49.476;10.986;2022-10-18T06:02:12;99239.34;;;15.09;100.00
12879;BME280;20617;49.476;10.986;2022-10-18T06:04:17;99231.34;;;15.12;100.00
12879;BME280;20617;49.476;10.986;2022-10-18T06:06:22;99230.28;;;15.16;100.00
12879;BME280;20617;49.476;10.986;2022-10-18T06:08:26;99225.84;;;15.19;100.00
12879;BME280;20617;49.476;10.986;2022-10-18T06:10:32;99229.22;;;15.21;100.00
12879;BME280;20617;49.476;10.986;2022-10-18T06:12:40;99236.81;;;15.27;100.00
12879;BME280;20617;49.476;10.986;2022-10-18T06:14:45;99229.66;;;15.30;100.00
12879;BME280;20617;49.476;10.986;2022-10-18T06:16:50;99241.91;;;15.30;100.00
12879;BME280;20617;49.476;10.986;2022-10-18T06:18:56;99233.91;;;15.33;100.00
12879;BME280;20617;49.476;10.986;2022-10-18T06:21:01;99239.88;;;15.36;100.00
12879;BME280;20617;49.476;10.986;2022-10-18T06:23:05;99243.34;;;15.37;100.00
12879;BME280;20617;49.476;10.986;2022-10-18T06:25:10;99252.91;;;15.38;100.00
12879;BME280;20617;49.476;10.986;2022-10-18T06:27:15;99250.16;;;15.41;100.00
12879;BME280;20617;49.476;10.986;2022-10-18T06:29:22;99245.63;;;15.45;100.00
12879;BME280;20617;49.476;10.986;2022-10-18T06:31:27;99250.88;;;15.45;100.00
12879;BME280;20617;49.476;10.986;2022-10-18T06:33:33;99241.28;;;15.44;100.00
12879;BME280;20617;49.476;10.986;2022-10-18T06:35:38;99237.97;;;15.40;100.00
12879;BME280;20617;49.476;10.986;2022-10-18T06:37:43;99250.28;;;15.38;100.00
12879;BME280;20617;49.476;10.986;2022-10-18T06:39:48;99248.59;;;15.37;100.00
12879;BME280;20617;49.476;10.986;2022-10-18T06:41:53;99252.25;;;15.33;100.00
12879;BME280;20617;49.476;10.986;2022-10-18T06:43:58;99259.16;;;15.35;100.00
12879;BME280;20617;49.476;10.986;2022-10-18T06:46:10;99254.78;;;15.36;100.00
12879;BME280;20617;49.476;10.986;2022-10-18T06:48:15;99254.88;;;15.33;100.00
12879;BME280;20617;49.476;10.986;2022-10-18T06:50:20;99253.84;;;15.37;100.00
12879;BME280;20617;49.476;10.986;2022-10-18T06:52:27;99255.47;;;15.39;100.00
12879;BME280;20617;49.476;10.986;2022-10-18T06:54:32;99251.06;;;15.40;100.00
12879;BME280;20617;49.476;10.986;2022-10-18T06:56:38;99253.50;;;15.45;100.00
12879;BME280;20617;49.476;10.986;2022-10-18T06:58:42;99252.44;;;15.49;100.00
12879;BME280;20617;49.476;10.986;2022-10-18T07:00:47;99247.88;;;15.52;100.00
12879;BME280;20617;49.476;10.986;2022-10-18T07:02:55;99243.28;;;15.57;100.00
12879;BME280;20617;49.476;10.986;2022-10-18T07:05:00;99249.94;;;15.65;100.00
12879;BME280;20617;49.476;10.986;2022-10-18T07:07:05;99246.13;;;15.72;100.00
12879;BME280;20617;49.476;10.986;2022-10-18T07:09:10;99233.66;;;15.77;100.00
12879;BME280;20617;49.476;10.986;2022-10-18T07:11:15;99228.56;;;15.74;100.00
12879;BME280;20617;49.476;10.986;2022-10-18T07:13:21;99239.81;;;15.76;100.00
12879;BME280;20617;49.476;10.986;2022-10-18T07:15:33;99235.41;;;15.76;100.00
12879;BME280;20617;49.476;10.986;2022-10-18T07:17:39;99236.28;;;15.77;100.00
12879;BME280;20617;49.476;10.986;2022-10-18T07:19:49;99242.44;;;15.76;100.00
12879;BME280;20617;49.476;10.986;2022-10-18T07:21:53;99239.91;;;15.74;100.00
12879;BME280;20617;49.476;10.986;2022-10-18T07:23:58;99239.06;;;15.74;100.00
12879;BME280;20617;49.476;10.986;2022-10-18T07:26:11;99250.41;;;15.74;100.00
12879;BME280;20617;49.476;10.986;2022-10-18T07:28:16;99251.31;;;15.73;100.00
12879;BME280;20617;49.476;10.986;2022-10-18T07:30:20;99249.56;;;15.74;100.00
12879;BME280;20617;49.476;10.986;2022-10-18T07:32:28;99254.88;;;15.72;100.00
12879;BME280;20617;49.476;10.986;2022-10-18T07:34:33;99266.22;;;15.73;100.00
12879;BME280;20617;49.476;10.986;2022-10-18T07:36:41;99262.81;;;15.71;100.00
12879;BME280;20617;49.476;10.986;2022-10-18T07:38:45;99262.03;;;15.69;100.00
12879;BME280;20617;49.476;10.986;2022-10-18T07:40:55;99263.00;;;15.66;100.00
12879;BME280;20617;49.476;10.986;2022-10-18T07:43:00;99262.16;;;15.66;100.00
12879;BME280;20617;49.476;10.986;2022-10-18T07:45:12;99260.25;;;15.69;100.00
12879;BME280;20617;49.476;10.986;2022-10-18T07:47:17;99267.06;;;15.73;100.00
12879;BME280;20617;49.476;10.986;2022-10-18T07:49:22;99269.53;;;15.76;100.00
12879;BME280;20617;49.476;10.986;2022-10-18T07:51:27;99265.78;;;15.82;100.00
12879;BME280;20617;49.476;10.986;2022-10-18T07:53:36;99270.03;;;15.84;100.00
12879;BME280;20617;49.476;10.986;2022-10-18T07:55:41;99265.41;;;15.90;100.00
12879;BME280;20617;49.476;10.986;2022-10-18T07:57:46;99265.34;;;15.91;100.00
12879;BME280;20617;49.476;10.986;2022-10-18T07:59:51;99266.75;;;15.98;100.00
12879;BME280;20617;49.476;10.986;2022-10-18T08:01:57;99268.28;;;16.02;100.00
12879;BME280;20617;49.476;10.986;2022-10-18T08:04:02;99267.25;;;16.06;100.00
12879;BME280;20617;49.476;10.986;2022-10-18T08:06:13;99266.09;;;16.12;100.00
12879;BME280;20617;49.476;10.986;2022-10-18T08:08:19;99264.78;;;16.21;100.00
12879;BME280;20617;49.476;10.986;2022-10-18T08:10:29;99265.41;;;16.26;100.00
12879;BME280;20617;49.476;10.986;2022-10-18T08:12:34;99260.13;;;16.26;100.00
12879;BME280;20617;49.476;10.986;2022-10-18T08:14:39;99259.09;;;16.30;100.00
12879;BME280;20617;49.476;10.986;2022-10-18T08:16:44;99261.47;;;16.35;100.00
12879;BME280;20617;49.476;10.986;2022-10-18T08:18:49;99267.19;;;16.43;100.00
12879;BME280;20617;49.476;10.986;2022-10-18T08:20:54;99269.59;;;16.47;100.00
12879;BME280;20617;49.476;10.986;2022-10-18T08:22:59;99271.13;;;16.51;100.00
12879;BME280;20617;49.476;10.986;2022-10-18T08:25:06;99272.63;;;16.57;100.00
12879;BME280;20617;49.476;10.986;2022-10-18T08:27:14;99272.16;;;16.66;100.00
12879;BME280;20617;49.476;10.986;2022-10-18T08:29:19;99274.47;;;16.72;100.00
12879;BME280;20617;49.476;10.986;2022-10-18T08:31:29;99275.06;;;16.79;100.00
12879;BME280;20617;49.476;10.986;2022-10-18T08:33:34;99272.94;;;16.86;100.00
12879;BME280;20617;49.476;10.986;2022-10-18T08:35:40;99280.44;;;16.93;100.00
12879;BME280;20617;49.476;10.986;2022-10-18T08:37:45;99275.66;;;17.02;100.00
12879;BME280;20617;49.476;10.986;2022-10-18T08:39:49;99267.34;;;17.09;100.00
12879;BME280;20617;49.476;10.986;2022-10-18T08:42:10;99265.06;;;17.19;100.00
12879;BME280;20617;49.476;10.986;2022-10-18T08:44:24;99273.34;;;17.29;100.00
12879;BME280;20617;49.476;10.986;2022-10-18T08:46:31;99261.47;;;17.37;100.00
12879;BME280;20617;49.476;10.986;2022-10-18T08:48:40;99256.63;;;17.46;100.00
12879;BME280;20617;49.476;10.986;2022-10-18T08:50:45;99262.31;;;17.54;100.00
12879;BME280;20617;49.476;10.986;2022-10-18T08:52:51;99253.34;;;17.58;100.00
12879;BME280;20617;49.476;10.986;2022-10-18T08:54:59;99263.19;;;17.70;100.00
12879;BME280;20617;49.476;10.986;2022-10-18T08:57:12;99248.69;;;17.79;100.00
12879;BME280;20617;49.476;10.986;2022-10-18T08:59:18;99254.38;;;17.87;100.00
12879;BME280;20617;49.476;10.986;2022-10-18T09:01:37;99242.91;;;18.04;100.00
12879;BME280;20617;49.476;10.986;2022-10-18T09:04:02;99241.41;;;18.14;100.00
12879;BME280;20617;49.476;10.986;2022-10-18T09:06:15;99228.72;;;18.21;100.00
12879;BME280;20617;49.476;10.986;2022-10-18T09:08:50;99229.91;;;18.31;100.00
12879;BME280;20617;49.476;10.986;2022-10-18T09:11:09;99232.78;;;18.42;100.00
12879;BME280;20617;49.476;10.986;2022-10-18T09:15:54;99230.34;;;18.98;100.00
12879;BME280;20617;49.476;10.986;2022-10-18T09:18:15;99227.50;;;19.44;100.00
12879;BME280;20617;49.476;10.986;2022-10-18T09:20:25;99208.38;;;19.82;100.00
12879;BME280;20617;49.476;10.986;2022-10-18T09:22:40;99200.22;;;20.12;100.00
12879;BME280;20617;49.476;10.986;2022-10-18T09:24:57;99195.22;;;20.34;100.00
12879;BME280;20617;49.476;10.986;2022-10-18T09:27:12;99194.59;;;20.44;100.00
12879;BME280;20617;49.476;10.986;2022-10-18T09:29:31;99197.16;;;20.58;100.00
12879;BME280;20617;49.476;10.986;2022-10-18T09:31:45;99199.31;;;20.66;100.00
12879;BME280;20617;49.476;10.986;2022-10-18T09:33:59;99197.06;;;20.72;100.00
12879;BME280;20617;49.476;10.986;2022-10-18T09:36:07;99199.28;;;20.78;100.00
12879;BME280;20617;49.476;10.986;2022-10-18T09:38:15;99211.47;;;20.81;100.00
12879;BME280;20617;49.476;10.986;2022-10-18T09:40:24;99206.47;;;20.76;100.00
12879;BME280;20617;49.476;10.986;2022-10-18T09:42:34;99210.19;;;20.74;100.00
12879;BME280;20617;49.476;10.986;2022-10-18T09:44:43;99211.16;;;20.73;100.00
12879;BME280;20617;49.476;10.986;2022-10-18T09:46:52;99212.09;;;20.72;100.00
12879;BME280;20617;49.476;10.986;2022-10-18T09:49:03;99203.97;;;20.75;100.00
12879;BME280;20617;49.476;10.986;2022-10-18T09:51:19;99217.19;;;20.75;100.00
12879;BME280;20617;49.476;10.986;2022-10-18T09:53:33;99216.97;;;20.78;100.00
12879;BME280;20617;49.476;10.986;2022-10-18T09:55:51;99212.53;;;20.78;100.00
12879;BME280;20617;49.476;10.986;2022-10-18T09:57:59;99215.94;;;20.80;100.00
12879;BME280;20617;49.476;10.986;2022-10-18T10:00:13;99215.59;;;20.98;100.00
12879;BME280;20617;49.476;10.986;2022-10-18T10:02:20;99218.34;;;21.09;100.00
12879;BME280;20617;49.476;10.986;2022-10-18T10:04:28;99215.59;;;21.11;100.00
12879;BME280;20617;49.476;10.986;2022-10-18T10:06:33;99210.81;;;21.16;100.00
12879;BME280;20617;49.476;10.986;2022-10-18T10:08:40;99217.91;;;21.15;100.00
12879;BME280;20617;49.476;10.986;2022-10-18T10:10:46;99211.34;;;21.08;100.00
12879;BME280;20617;49.476;10.986;2022-10-18T10:13:02;99216.63;;;21.08;100.00
12879;BME280;20617;49.476;10.986;2022-10-18T10:15:11;99219.50;;;21.05;100.00
12879;BME280;20617;49.476;10.986;2022-10-18T10:17:21;99218.13;;;21.12;100.00
12879;BME280;20617;49.476;10.986;2022-10-18T10:19:37;99217.25;;;21.12;100.00
12879;BME280;20617;49.476;10.986;2022-10-18T10:21:43;99220.69;;;21.01;100.00
12879;BME280;20617;49.476;10.986;2022-10-18T10:23:52;99218.47;;;20.95;100.00
12879;BME280;20617;49.476;10.986;2022-10-18T10:26:00;99227.25;;;20.95;100.00
12879;BME280;20617;49.476;10.986;2022-10-18T10:28:12;99212.44;;;20.80;100.00
12879;BME280;20617;49.476;10.986;2022-10-18T10:30:23;99209.03;;;20.78;100.00
12879;BME280;20617;49.476;10.986;2022-10-18T10:32:31;99220.47;;;20.66;100.00
12879;BME280;20617;49.476;10.986;2022-10-18T10:34:48;99211.84;;;20.49;100.00
12879;BME280;20617;49.476;10.986;2022-10-18T10:36:53;99219.13;;;20.46;100.00
12879;BME280;20617;49.476;10.986;2022-10-18T10:39:03;99216.69;;;20.43;100.00
12879;BME280;20617;49.476;10.986;2022-10-18T10:41:17;99215.59;;;20.32;100.00
12879;BME280;20617;49.476;10.986;2022-10-18T10:43:25;99231.88;;;20.26;100.00
12879;BME280;20617;49.476;10.986;2022-10-18T10:48:10;99239.09;;;19.97;100.00
12879;BME280;20617;49.476;10.986;2022-10-18T10:50:26;99270.19;;;19.79;100.00
12879;BME280;20617;49.476;10.986;2022-10-18T10:52:32;99269.53;;;19.61;100.00
12879;BME280;20617;49.476;10.986;2022-10-18T10:54:37;99271.16;;;19.64;100.00
12879;BME280;20617;49.476;10.986;2022-10-18T10:56:53;99274.47;;;19.67;100.00
12879;BME280;20617;49.476;10.986;2022-10-18T10:59:06;99262.53;;;19.60;100.00
12879;BME280;20617;49.476;10.986;2022-10-18T11:01:21;99258.22;;;19.59;100.00
12879;BME280;20617;49.476;10.986;2022-10-18T11:03:29;99266.97;;;19.60;100.00
12879;BME280;20617;49.476;10.986;2022-10-18T11:05:43;99265.88;;;19.50;100.00
12879;BME280;20617;49.476;10.986;2022-10-18T11:07:50;99269.53;;;19.61;100.00